Time;durP1;ratioP1;P1;durP2;ratioP2;P2;SDS_P1;SDS_P2;PMS_P1;PMS_P2;Temp;Humidity;BMP_temperature;BMP_pressure;BME280_temperature;BME280_humidity;BME280_pressure;Samples;Min_cycle;Max_cycle;Signal;HPM_P1;HPM_P2
2023/07/09 00:00:48;;;;;;;;;10.00;9.75;;;;;25.57;55.27;101657.22;5048446;28;8837;-69
2023/07/09 00:03:15;;;;;;;;;10.25;10.25;;;;;25.54;55.36;101656.94;5027226;28;8914;-69
2023/07/09 00:05:42;;;;;;;;;8.00;8.00;;;;;25.54;55.41;101659.69;5032817;28;8900;-68
2023/07/09 00:08:25;;;;;;;;;9.00;9.00;;;;;25.52;55.64;101665.50;5014812;28;8823;-70
2023/07/09 00:10:52;;;;;;;;;10.50;8.00;;;;;25.51;55.49;101658.28;5050942;28;9574;-69
2023/07/09 00:13:19;;;;;;;;;12.00;8.50;;;;;25.54;55.74;101671.53;5032450;28;8840;-68
2023/07/09 00:15:45;;;;;;;;;7.75;7.00;;;;;25.55;55.77;101670.44;5023261;28;8850;-69
2023/07/09 00:18:12;;;;;;;;;10.50;10.50;;;;;25.55;56.02;101673.19;5033549;28;8855;-68
2023/07/09 00:20:38;;;;;;;;;10.50;10.50;;;;;25.54;56.15;101677.06;5039677;28;8881;-69
2023/07/09 00:23:05;;;;;;;;;9.00;7.75;;;;;25.52;56.53;101673.75;5012847;28;8917;-68
2023/07/09 00:25:34;;;;;;;;;10.00;10.00;;;;;25.49;56.63;101671.53;5012705;28;8913;-68
2023/07/09 00:28:00;;;;;;;;;11.75;11.25;;;;;25.45;57.01;101675.94;5012619;28;8954;-71
2023/07/09 00:30:27;;;;;;;;;14.00;11.75;;;;;25.39;57.24;101685.28;5024536;28;9588;-67
2023/07/09 00:32:54;;;;;;;;;13.25;12.00;;;;;25.33;57.60;101684.47;5028340;28;8954;-66
2023/07/09 00:35:23;;;;;;;;;11.75;11.75;;;;;25.28;57.74;101689.97;5024823;28;8839;-70
2023/07/09 00:37:49;;;;;;;;;14.50;13.25;;;;;25.21;57.96;101683.91;5031968;28;9170;-68
2023/07/09 00:40:20;;;;;;;;;14.75;14.25;;;;;25.17;58.23;101685.53;5031750;28;10027;-69
2023/07/09 00:42:49;;;;;;;;;12.25;10.75;;;;;25.14;58.40;101680.56;5032010;28;8821;-69
2023/07/09 00:45:25;;;;;;;;;11.50;11.50;;;;;25.11;58.50;101690.19;5032956;28;8841;-69
2023/07/09 00:47:58;;;;;;;;;13.75;12.75;;;;;25.09;58.58;101697.09;5031621;28;8825;-69
2023/07/09 00:50:33;;;;;;;;;11.25;11.25;;;;;25.08;58.78;101693.47;5029932;28;8857;-68
2023/07/09 00:53:08;;;;;;;;;15.25;11.00;;;;;25.09;58.65;101697.91;5030541;28;8829;-70
2023/07/09 00:55:39;;;;;;;;;10.75;10.00;;;;;25.08;58.43;101699.00;5031799;28;8844;-69
2023/07/09 00:58:10;;;;;;;;;9.75;9.00;;;;;25.08;58.31;101698.16;5047153;28;8829;-68
2023/07/09 01:00:46;;;;;;;;;9.50;9.50;;;;;25.04;58.28;101695.13;5028692;28;9533;-68
2023/07/09 01:03:21;;;;;;;;;11.00;9.00;;;;;25.04;58.07;101699.81;5030295;28;8951;-70
2023/07/09 01:05:51;;;;;;;;;9.00;9.00;;;;;25.06;57.80;101695.66;5031743;28;8836;-69
2023/07/09 01:08:20;;;;;;;;;6.25;6.25;;;;;25.09;57.71;101695.16;5037826;28;8909;-69
2023/07/09 01:10:47;;;;;;;;;8.75;8.75;;;;;25.11;57.50;101694.88;5029325;28;8836;-69
2023/07/09 01:13:14;;;;;;;;;10.00;9.00;;;;;25.08;57.62;101690.72;5045626;28;9577;-70
2023/07/09 01:15:41;;;;;;;;;10.50;10.50;;;;;25.08;57.64;101696.22;5031265;28;8832;-68
2023/07/09 01:18:10;;;;;;;;;11.75;9.25;;;;;25.07;57.78;101693.72;5033213;28;8846;-67
2023/07/09 01:20:38;;;;;;;;;10.50;9.00;;;;;25.05;57.80;101695.94;5038313;28;8834;-68
2023/07/09 01:23:05;;;;;;;;;11.25;10.25;;;;;25.03;58.03;101693.44;5030784;28;9640;-69
2023/07/09 01:25:32;;;;;;;;;13.00;11.00;;;;;25.00;57.86;101685.75;5027063;28;8901;-68
2023/07/09 01:27:59;;;;;;;;;14.50;12.50;;;;;24.97;58.02;101691.78;5043719;28;8913;-69
2023/07/09 01:30:31;;;;;;;;;7.00;6.25;;;;;24.94;58.18;101692.31;5028892;28;8951;-69
2023/07/09 01:33:00;;;;;;;;;9.75;9.50;;;;;24.91;58.13;101693.69;5040343;28;8855;-69
2023/07/09 01:35:31;;;;;;;;;16.00;12.00;;;;;24.90;58.10;101699.47;5030945;28;8825;-69
2023/07/09 01:37:58;;;;;;;;;12.25;11.00;;;;;24.88;58.23;101690.66;5029680;28;8887;-69
2023/07/09 01:40:27;;;;;;;;;7.75;7.75;;;;;24.88;58.17;101690.66;5029321;28;8864;-68
2023/07/09 01:43:00;;;;;;;;;10.75;10.75;;;;;24.87;58.24;101695.34;5028752;28;9155;-70
2023/07/09 01:45:27;;;;;;;;;10.50;10.25;;;;;24.87;58.09;101694.47;5028883;28;8926;-69
2023/07/09 01:47:55;;;;;;;;;9.00;8.75;;;;;24.86;58.03;101698.34;5028724;28;8875;-66
2023/07/09 01:50:24;;;;;;;;;10.25;8.50;;;;;24.85;58.05;101699.44;5009471;28;9585;-68
2023/07/09 01:52:53;;;;;;;;;13.75;11.50;;;;;24.83;58.01;101704.38;5011022;28;8961;-69
2023/07/09 01:55:19;;;;;;;;;10.50;10.00;;;;;24.82;58.08;101708.25;5010907;28;8839;-70
2023/07/09 01:57:46;;;;;;;;;14.25;12.25;;;;;24.77;58.13;101703.53;5015887;28;8942;-70
2023/07/09 02:00:15;;;;;;;;;12.00;10.75;;;;;24.76;58.34;101703.81;5028489;28;8833;-66
2023/07/09 02:02:45;;;;;;;;;10.00;8.50;;;;;24.71;58.42;101701.84;5023006;28;8839;-69
2023/07/09 02:05:17;;;;;;;;;12.75;12.75;;;;;24.69;58.59;101705.97;5026352;28;8841;-68
2023/07/09 02:07:45;;;;;;;;;11.75;10.50;;;;;24.65;58.61;101697.44;5030242;28;8874;-69
2023/07/09 02:10:12;;;;;;;;;12.25;10.75;;;;;24.61;58.75;101697.13;5045704;28;8962;-69
2023/07/09 02:12:39;;;;;;;;;13.25;11.50;;;;;24.58;58.86;101699.59;5024916;28;8827;-70
2023/07/09 02:15:06;;;;;;;;;11.25;11.25;;;;;24.54;59.10;101702.03;5017620;28;8990;-68
2023/07/09 02:17:33;;;;;;;;;10.50;9.00;;;;;24.51;59.16;101713.59;5028889;28;8837;-70
2023/07/09 02:20:04;;;;;;;;;11.25;11.25;;;;;24.50;59.31;101705.59;5028738;28;8840;-69
2023/07/09 02:22:31;;;;;;;;;10.25;10.25;;;;;24.50;59.33;101706.41;5028770;28;8912;-70
2023/07/09 02:24:57;;;;;;;;;15.50;13.50;;;;;24.49;59.42;101701.19;5027616;28;8866;-69
2023/07/09 02:27:24;;;;;;;;;12.25;11.00;;;;;24.45;59.43;101709.16;5022519;28;8959;-69
2023/07/09 02:29:51;;;;;;;;;9.00;9.00;;;;;24.41;59.71;101702.53;5025385;28;8850;-70
2023/07/09 02:32:20;;;;;;;;;12.50;12.25;;;;;24.36;59.81;101706.03;5022461;28;8837;-70
2023/07/09 02:34:52;;;;;;;;;15.25;15.25;;;;;24.32;59.97;101712.34;5030037;28;9521;-70
2023/07/09 02:37:21;;;;;;;;;13.50;13.50;;;;;24.27;60.01;101704.06;5045122;28;8840;-70
2023/07/09 02:39:48;;;;;;;;;9.50;9.50;;;;;24.23;60.09;101709.28;5027206;28;8859;-69
2023/07/09 02:42:17;;;;;;;;;14.25;14.25;;;;;24.21;60.34;101699.59;5029421;28;8979;-69
2023/07/09 02:44:45;;;;;;;;;11.50;11.50;;;;;24.19;60.31;101705.38;5043953;28;8949;-69
2023/07/09 02:47:13;;;;;;;;;12.50;12.50;;;;;24.19;60.37;101710.88;5028625;28;8840;-70
2023/07/09 02:49:40;;;;;;;;;12.25;12.25;;;;;24.20;60.51;101708.97;5028546;28;9361;-71
2023/07/09 02:52:07;;;;;;;;;13.50;13.50;;;;;24.18;60.47;101699.06;5026140;28;8861;-68
2023/07/09 02:54:33;;;;;;;;;11.00;10.75;;;;;24.18;60.71;101703.72;5022207;28;8848;-69
2023/07/09 02:57:00;;;;;;;;;10.00;9.00;;;;;24.17;60.67;101700.13;5043531;28;8854;-70
2023/07/09 02:59:29;;;;;;;;;11.00;10.75;;;;;24.18;60.58;101701.81;5044723;28;8851;-69
2023/07/09 03:01:57;;;;;;;;;11.75;11.75;;;;;24.18;60.54;101704.56;5008472;28;9579;-69
2023/07/09 03:04:24;;;;;;;;;8.00;8.00;;;;;24.19;60.50;101713.63;5025276;28;8939;-70
2023/07/09 03:06:50;;;;;;;;;10.25;10.25;;;;;24.19;60.67;101710.88;5028366;28;9613;-70
2023/07/09 03:09:17;;;;;;;;;13.75;12.25;;;;;24.20;60.53;101715.28;5039353;28;8891;-68
2023/07/09 03:11:43;;;;;;;;;11.00;11.00;;;;;24.18;60.44;101709.22;5048152;28;8830;-69
2023/07/09 03:14:10;;;;;;;;;9.25;7.75;;;;;24.18;60.38;101700.97;5049661;28;8842;-70
2023/07/09 03:16:37;;;;;;;;;12.75;10.00;;;;;24.18;60.49;101706.47;5026691;28;8828;-69
2023/07/09 03:19:04;;;;;;;;;12.00;11.75;;;;;24.15;60.51;101699.59;5029132;28;8808;-69
2023/07/09 03:21:32;;;;;;;;;14.50;14.25;;;;;24.11;60.72;101709.47;5029577;28;8932;-69
2023/07/09 03:23:59;;;;;;;;;15.00;11.50;;;;;24.08;60.86;101706.41;5020197;28;8856;-68
2023/07/09 03:26:26;;;;;;;;;12.50;11.25;;;;;24.04;61.43;101708.84;5027090;28;8830;-68
2023/07/09 03:28:53;;;;;;;;;14.25;13.25;;;;;24.01;61.29;101709.38;5049436;28;8810;-69
2023/07/09 03:31:21;;;;;;;;;16.00;14.00;;;;;23.98;61.45;101701.63;5032608;28;8920;-68
2023/07/09 03:33:49;;;;;;;;;12.75;11.75;;;;;23.93;61.52;101702.44;5039696;28;8848;-68
2023/07/09 03:36:16;;;;;;;;;12.25;11.75;;;;;23.91;61.78;101703.81;5030316;28;8844;-68
2023/07/09 03:38:42;;;;;;;;;16.00;15.00;;;;;23.87;61.77;101709.00;5034175;28;8826;-66
2023/07/09 03:41:09;;;;;;;;;13.75;12.00;;;;;23.85;61.82;101707.59;5051462;28;8834;-66
2023/07/09 03:43:36;;;;;;;;;12.00;11.75;;;;;23.82;62.06;101716.34;5034397;28;8859;-66
2023/07/09 03:46:02;;;;;;;;;13.50;13.50;;;;;23.77;61.98;101714.38;5028807;28;8840;-69
2023/07/09 03:48:29;;;;;;;;;14.50;13.50;;;;;23.78;62.10;101720.72;5031779;28;8833;-66
2023/07/09 03:50:56;;;;;;;;;17.50;15.00;;;;;23.74;62.40;101720.44;5047822;28;8991;-66
2023/07/09 03:53:22;;;;;;;;;14.25;14.25;;;;;23.73;62.40;101723.41;5032874;28;8844;-66
2023/07/09 03:55:54;;;;;;;;;14.25;12.75;;;;;23.73;62.65;101726.16;5025937;28;8837;-67
2023/07/09 03:58:22;;;;;;;;;10.75;10.75;;;;;23.69;62.88;101721.19;5029731;28;9566;-66
2023/07/09 04:00:48;;;;;;;;;13.75;12.75;;;;;23.68;62.81;101726.97;5032629;28;8844;-66
2023/07/09 04:03:15;;;;;;;;;15.50;14.00;;;;;23.68;63.00;101724.22;5029427;28;8836;-67
2023/07/09 04:05:41;;;;;;;;;12.25;12.25;;;;;23.67;62.99;101731.63;5031981;28;8833;-67
2023/07/09 04:08:08;;;;;;;;;12.75;11.75;;;;;23.65;63.34;101728.28;5032613;28;8860;-67
2023/07/09 04:10:34;;;;;;;;;14.00;13.75;;;;;23.64;63.09;101740.34;5035824;28;8846;-68
2023/07/09 04:13:01;;;;;;;;;11.75;11.75;;;;;23.63;63.36;101735.97;5041165;28;8820;-66
2023/07/09 04:15:27;;;;;;;;;14.50;12.75;;;;;23.64;63.39;101745.03;5040278;28;8831;-67
2023/07/09 04:17:54;;;;;;;;;15.75;13.00;;;;;23.61;63.52;101743.63;5032224;28;8833;-68
2023/07/09 04:20:21;;;;;;;;;12.00;11.50;;;;;23.64;63.30;101736.78;5030962;28;8837;-68
2023/07/09 04:22:48;;;;;;;;;12.00;12.00;;;;;23.65;63.61;101738.44;5029643;28;8874;-67
2023/07/09 04:25:15;;;;;;;;;12.75;12.00;;;;;23.63;63.47;101744.19;5027027;28;8870;-67
2023/07/09 04:27:41;;;;;;;;;11.00;11.00;;;;;23.62;63.49;101745.31;5045488;28;8863;-68
2023/07/09 04:30:12;;;;;;;;;15.00;14.25;;;;;23.63;63.39;101741.44;5031598;28;8856;-66
2023/07/09 04:32:38;;;;;;;;;13.25;13.25;;;;;23.64;63.77;101742.28;5031820;28;8853;-67
2023/07/09 04:35:06;;;;;;;;;15.25;14.00;;;;;23.63;63.93;101735.97;5028910;28;10883;-67
2023/07/09 04:37:33;;;;;;;;;15.50;12.75;;;;;23.66;64.04;101740.16;5025376;28;8865;-66
2023/07/09 04:39:59;;;;;;;;;15.00;15.00;;;;;23.65;64.04;101739.28;5037029;28;8827;-67
2023/07/09 04:42:26;;;;;;;;;15.00;14.25;;;;;23.66;64.18;101745.66;5027318;28;8879;-67
2023/07/09 04:44:52;;;;;;;;;13.25;12.50;;;;;23.65;64.50;101744.78;5036972;28;9540;-67
2023/07/09 04:47:19;;;;;;;;;14.50;13.00;;;;;23.65;64.56;101738.44;5010749;28;8858;-67
2023/07/09 04:49:45;;;;;;;;;11.50;10.00;;;;;23.64;64.47;101743.09;5012240;28;8913;-68
2023/07/09 04:52:14;;;;;;;;;15.00;15.00;;;;;23.65;64.71;101753.03;5011645;28;8846;-67
2023/07/09 04:54:44;;;;;;;;;11.75;11.75;;;;;23.64;64.86;101756.03;5035751;28;8896;-67
2023/07/09 04:57:12;;;;;;;;;12.00;12.00;;;;;23.63;64.84;101757.94;5029051;28;9691;-67
2023/07/09 04:59:38;;;;;;;;;11.00;11.00;;;;;23.64;64.94;101753.28;5046182;28;8919;-67
2023/07/09 05:02:05;;;;;;;;;16.00;12.50;;;;;23.65;65.00;101747.53;5026289;28;8835;-66
2023/07/09 05:04:32;;;;;;;;;12.00;11.50;;;;;23.66;65.11;101749.22;5023317;28;8848;-66
2023/07/09 05:06:59;;;;;;;;;12.00;12.00;;;;;23.68;64.92;101747.03;5046647;28;8817;-67
2023/07/09 05:09:25;;;;;;;;;10.75;10.75;;;;;23.70;65.04;101746.78;5031601;28;8837;-66
2023/07/09 05:11:52;;;;;;;;;11.50;10.75;;;;;23.75;64.95;101743.25;5026415;28;8853;-66
2023/07/09 05:14:19;;;;;;;;;9.75;9.25;;;;;23.77;64.86;101738.31;5026444;28;8837;-66
2023/07/09 05:16:45;;;;;;;;;12.75;12.75;;;;;23.79;64.76;101742.47;5031269;28;8828;-66
2023/07/09 05:19:12;;;;;;;;;11.00;9.75;;;;;23.83;64.61;101745.53;5023894;28;8840;-66
2023/07/09 05:21:38;;;;;;;;;9.50;9.50;;;;;23.85;64.77;101738.66;5030032;28;8844;-67
2023/07/09 05:24:05;;;;;;;;;8.50;8.50;;;;;23.89;64.82;101749.97;5030594;28;8836;-66
2023/07/09 05:26:32;;;;;;;;;8.50;8.00;;;;;23.93;64.67;101740.09;5048088;28;8825;-66
2023/07/09 05:28:58;;;;;;;;;13.75;11.00;;;;;23.97;64.54;101738.47;5044414;28;8843;-66
2023/07/09 05:31:25;;;;;;;;;11.25;11.25;;;;;24.00;64.39;101737.16;5028428;28;8939;-66
2023/07/09 05:33:52;;;;;;;;;10.00;10.00;;;;;24.02;64.42;101733.03;5028286;28;8943;-65
2023/07/09 05:36:19;;;;;;;;;8.00;8.00;;;;;24.08;64.39;101734.72;5021605;28;8809;-67
2023/07/09 05:38:47;;;;;;;;;9.50;9.50;;;;;24.17;64.04;101730.41;5035967;28;8969;-65
2023/07/09 05:41:16;;;;;;;;;9.50;9.25;;;;;24.32;63.91;101724.19;5036221;28;8960;-67
2023/07/09 05:43:44;;;;;;;;;12.00;10.50;;;;;24.45;63.70;101733.91;5043105;28;8854;-66
2023/07/09 05:46:12;;;;;;;;;10.25;10.25;;;;;24.58;63.30;101735.38;5029310;28;8951;-65
2023/07/09 05:48:39;;;;;;;;;9.00;9.00;;;;;24.68;62.69;101740.94;5030719;28;8817;-67
2023/07/09 05:51:05;;;;;;;;;11.50;10.00;;;;;24.74;62.59;101744.56;5029265;28;9568;-69
2023/07/09 05:53:33;;;;;;;;;11.00;11.00;;;;;24.79;62.36;101739.88;5027809;28;8963;-66
2023/07/09 05:56:00;;;;;;;;;11.00;11.00;;;;;24.83;62.38;101742.94;5026677;28;9530;-68
2023/07/09 05:58:27;;;;;;;;;11.00;10.75;;;;;24.85;62.27;101740.75;5025154;28;8882;-66
2023/07/09 06:00:56;;;;;;;;;8.75;8.75;;;;;24.85;62.08;101740.75;5022377;28;8951;-68
2023/07/09 06:03:24;;;;;;;;;10.25;10.25;;;;;24.86;62.00;101745.16;5025592;28;8832;-67
2023/07/09 06:05:52;;;;;;;;;13.25;11.00;;;;;24.90;61.90;101741.59;5027331;28;8813;-67
2023/07/09 06:08:20;;;;;;;;;12.25;10.00;;;;;24.97;61.96;101744.13;5010663;28;8823;-67
2023/07/09 06:10:51;;;;;;;;;9.75;9.75;;;;;25.01;61.87;101752.69;5025720;28;8844;-69
2023/07/09 06:13:18;;;;;;;;;10.25;10.25;;;;;25.02;62.10;101752.41;5028987;28;8851;-66
2023/07/09 06:15:45;;;;;;;;;11.00;10.50;;;;;25.04;62.00;101757.66;5030398;28;8970;-67
2023/07/09 06:18:12;;;;;;;;;10.75;10.50;;;;;25.04;62.00;101760.41;5038974;28;8864;-67
2023/07/09 06:20:38;;;;;;;;;10.75;10.75;;;;;25.01;61.63;101769.19;5040235;28;8868;-68
2023/07/09 06:23:05;;;;;;;;;10.25;10.25;;;;;24.98;61.36;101778.00;5027370;28;8840;-67
2023/07/09 06:25:31;;;;;;;;;14.50;11.00;;;;;24.99;61.27;101782.41;5030239;28;8832;-66
2023/07/09 06:27:58;;;;;;;;;9.00;9.00;;;;;24.99;61.67;101782.41;5029595;28;8833;-67
2023/07/09 06:30:24;;;;;;;;;11.00;9.25;;;;;25.01;61.88;101786.56;5027436;28;8821;-68
2023/07/09 06:32:51;;;;;;;;;10.00;10.00;;;;;24.99;62.17;101793.41;5037513;28;8842;-68
2023/07/09 06:35:17;;;;;;;;;9.75;9.75;;;;;25.00;61.88;101787.66;5048380;28;8911;-68
2023/07/09 06:37:44;;;;;;;;;12.00;12.00;;;;;25.03;61.76;101794.53;5045025;28;8840;-67
2023/07/09 06:40:12;;;;;;;;;13.75;10.25;;;;;25.05;61.81;101795.13;5024284;28;8855;-66
2023/07/09 06:42:39;;;;;;;;;12.00;10.00;;;;;25.07;61.54;101798.41;5026273;28;8824;-67
2023/07/09 06:45:18;;;;;;;;;11.00;11.00;;;;;25.07;61.74;101795.66;5011464;28;8817;-67
2023/07/09 06:47:45;;;;;;;;;12.00;12.00;;;;;25.08;61.76;101798.16;5027690;28;8844;-68
2023/07/09 06:50:12;;;;;;;;;13.25;10.75;;;;;25.08;61.77;101806.44;5028162;28;8847;-67
2023/07/09 06:52:38;;;;;;;;;11.50;10.00;;;;;25.09;61.58;101810.03;5029935;28;8887;-67
2023/07/09 06:55:05;;;;;;;;;11.75;11.75;;;;;25.08;61.53;101803.69;5014543;28;8862;-68
2023/07/09 06:57:32;;;;;;;;;12.50;10.50;;;;;25.11;61.48;101794.06;5023057;28;8830;-67
2023/07/09 06:59:58;;;;;;;;;11.25;10.25;;;;;25.14;61.48;101788.84;5028993;28;9582;-66
2023/07/09 07:02:25;;;;;;;;;11.25;11.25;;;;;25.18;61.62;101799.34;5030400;28;8861;-67
2023/07/09 07:04:52;;;;;;;;;11.75;11.00;;;;;25.21;61.38;101807.91;5008643;28;8859;-68
2023/07/09 07:07:19;;;;;;;;;13.25;13.00;;;;;25.22;60.93;101808.72;5012093;28;9809;-67
2023/07/09 07:09:46;;;;;;;;;16.75;16.00;;;;;25.23;60.56;101805.69;5024302;28;8836;-68
2023/07/09 07:12:23;;;;;;;;;14.00;14.00;;;;;25.23;60.24;101807.63;5044865;28;8838;-68
2023/07/09 07:14:49;;;;;;;;;20.75;19.50;;;;;25.22;59.63;101817.81;5037339;28;8924;-68
2023/07/09 07:17:16;;;;;;;;;21.50;19.75;;;;;25.18;58.41;101822.22;5029658;28;8841;-68
2023/07/09 07:19:42;;;;;;;;;31.50;30.00;;;;;25.13;57.17;101836.78;5031015;28;8844;-68
2023/07/09 07:22:09;;;;;;;;;30.25;27.50;;;;;25.11;57.06;101836.22;5051697;28;8829;-68
2023/07/09 07:24:35;;;;;;;;;27.67;27.67;;;;;25.08;56.83;101833.16;5032098;28;8828;-68
2023/07/09 07:27:03;;;;;;;;;29.00;27.75;;;;;25.03;55.98;101831.19;5015838;28;9024;-68
2023/07/09 07:29:29;;;;;;;;;36.33;34.00;;;;;24.96;55.05;101838.88;5027192;28;8855;-68
2023/07/09 07:31:56;;;;;;;;;31.33;31.33;;;;;24.88;54.75;101834.69;5032779;28;9080;-68
2023/07/09 07:34:24;;;;;;;;;26.25;24.50;;;;;24.86;54.12;101825.03;5032079;28;9010;-68
2023/07/09 07:36:50;;;;;;;;;25.50;25.00;;;;;24.85;54.33;101831.63;5042801;28;8844;-68
2023/07/09 07:39:17;;;;;;;;;23.75;20.00;;;;;24.86;54.47;101825.03;5023639;28;10426;-65
2023/07/09 07:41:43;;;;;;;;;22.75;21.50;;;;;24.86;54.38;101816.78;5026269;28;8847;-68
2023/07/09 07:44:09;;;;;;;;;20.25;20.25;;;;;24.90;54.58;101818.72;5031544;28;8828;-68
2023/07/09 07:46:36;;;;;;;;;18.00;18.00;;;;;24.91;54.39;101823.16;5031849;28;8868;-68
2023/07/09 07:49:03;;;;;;;;;20.00;17.00;;;;;24.96;54.47;101822.34;5019671;28;8875;-68
2023/07/09 07:51:29;;;;;;;;;20.75;20.75;;;;;25.02;54.46;101825.94;5030017;28;8829;-68
2023/07/09 07:53:56;;;;;;;;;17.00;16.75;;;;;25.05;54.06;101817.16;5028468;28;8824;-68
2023/07/09 07:56:23;;;;;;;;;22.00;21.50;;;;;25.07;53.74;101815.78;5025314;28;8969;-68
2023/07/09 07:58:49;;;;;;;;;18.25;16.25;;;;;25.03;53.13;101828.44;5029253;28;8914;-68
2023/07/09 08:01:16;;;;;;;;;12.25;12.00;;;;;25.04;52.78;101827.34;5039134;28;8840;-68
2023/07/09 08:03:42;;;;;;;;;14.25;14.25;;;;;25.06;52.91;101819.63;5030690;28;8847;-68
2023/07/09 08:06:09;;;;;;;;;11.25;11.25;;;;;25.10;52.88;101814.44;5025608;28;9611;-68
2023/07/09 08:08:36;;;;;;;;;9.00;9.00;;;;;25.15;53.08;101814.47;5033809;28;8839;-68
2023/07/09 08:11:07;;;;;;;;;9.00;9.00;;;;;25.18;53.03;101816.69;5017637;28;8836;-68
2023/07/09 08:13:36;;;;;;;;;9.00;9.00;;;;;25.21;53.06;101820.84;5028288;28;8852;-68
2023/07/09 08:16:04;;;;;;;;;9.25;9.25;;;;;25.25;53.27;101822.78;5017747;28;8901;-68
2023/07/09 08:18:31;;;;;;;;;14.25;13.75;;;;;25.19;52.76;101815.59;5022497;28;8837;-67
2023/07/09 08:21:01;;;;;;;;;14.75;13.50;;;;;25.16;52.93;101824.41;5016641;28;8847;-67
2023/07/09 08:23:28;;;;;;;;;11.75;11.50;;;;;25.14;53.07;101818.31;5023185;28;8851;-67
2023/07/09 08:26:00;;;;;;;;;10.25;10.25;;;;;25.16;53.36;101813.41;5017574;28;8835;-67
2023/07/09 08:28:27;;;;;;;;;16.00;14.00;;;;;25.17;53.39;101812.28;5017741;28;8957;-67
2023/07/09 08:30:55;;;;;;;;;10.75;10.75;;;;;25.20;53.82;101813.66;5026776;28;8832;-68
2023/07/09 08:33:23;;;;;;;;;15.00;15.00;;;;;25.22;53.67;101803.22;5043586;28;8820;-67
2023/07/09 08:35:50;;;;;;;;;21.25;18.50;;;;;25.23;53.32;101804.84;5032101;28;8853;-67
2023/07/09 08:38:18;;;;;;;;;14.25;13.25;;;;;25.25;53.80;101802.69;5047224;28;8864;-67
2023/07/09 08:40:55;;;;;;;;;8.00;8.00;;;;;25.30;54.60;101802.69;5031917;28;9573;-67
2023/07/09 08:43:33;;;;;;;;;13.25;12.25;;;;;25.36;54.37;101807.97;5025203;28;9557;-67
2023/07/09 08:46:14;;;;;;;;;15.75;14.75;;;;;25.39;54.05;101793.63;5022436;28;8825;-68
2023/07/09 08:48:45;;;;;;;;;18.50;17.50;;;;;25.44;53.96;101794.72;5022750;28;8867;-67
2023/07/09 08:51:24;;;;;;;;;17.00;16.00;;;;;25.45;54.13;101780.69;5020896;28;8851;-67
2023/07/09 08:53:56;;;;;;;;;15.75;14.00;;;;;25.50;54.48;101791.72;5024428;28;8921;-68
2023/07/09 08:56:24;;;;;;;;;17.75;16.50;;;;;25.54;54.13;101783.75;5032017;28;8921;-69
2023/07/09 08:58:54;;;;;;;;;13.00;12.25;;;;;25.58;54.42;101793.13;5030249;28;8879;-69
2023/07/09 09:01:27;;;;;;;;;13.50;13.25;;;;;25.63;54.54;101796.72;5036617;28;8825;-68
2023/07/09 09:04:03;;;;;;;;;12.25;12.25;;;;;25.67;54.62;101790.66;5049457;28;8857;-70
2023/07/09 09:06:31;;;;;;;;;14.00;13.00;;;;;25.74;55.24;101791.25;5020639;28;8828;-68
2023/07/09 09:09:22;;;;;;;;;11.25;11.25;;;;;25.82;55.30;101796.25;5028382;28;8848;-68
2023/07/09 09:12:08;;;;;;;;;17.25;16.00;;;;;25.84;54.66;101807.81;5026064;28;8867;-68
2023/07/09 09:14:52;;;;;;;;;16.50;16.50;;;;;25.81;53.49;101797.38;5028135;28;8931;-69
2023/07/09 09:17:20;;;;;;;;;14.00;13.75;;;;;25.78;54.34;101786.88;5041732;28;8870;-71
2023/07/09 09:19:56;;;;;;;;;14.75;14.75;;;;;25.78;54.60;101798.72;5046412;28;8875;-69
2023/07/09 09:22:32;;;;;;;;;16.00;16.00;;;;;25.76;54.32;101800.88;5039188;28;8826;-68
2023/07/09 09:25:17;;;;;;;;;16.00;15.00;;;;;25.69;54.53;101797.59;5041981;28;8864;-69
2023/07/09 09:27:43;;;;;;;;;15.75;14.50;;;;;25.65;54.88;101793.72;5037057;28;9577;-68
2023/07/09 09:30:24;;;;;;;;;17.00;16.75;;;;;25.63;54.83;101802.22;5050919;28;8858;-68
2023/07/09 09:32:57;;;;;;;;;16.50;16.50;;;;;25.56;54.90;101789.81;5034092;28;9625;-69
2023/07/09 09:35:33;;;;;;;;;15.75;14.25;;;;;25.52;55.24;101792.31;5010701;28;8985;-68
2023/07/09 09:38:02;;;;;;;;;16.00;16.00;;;;;25.55;55.46;101788.97;5011213;28;8949;-68
2023/07/09 09:40:34;;;;;;;;;16.00;13.75;;;;;25.53;54.87;101802.22;5024423;28;8859;-69
2023/07/09 09:43:02;;;;;;;;;13.25;13.25;;;;;25.57;54.89;101808.84;5066288;28;8860;-69
2023/07/09 09:45:34;;;;;;;;;18.25;18.25;;;;;25.60;53.87;101812.97;5039249;28;8901;-69
2023/07/09 09:48:10;;;;;;;;;11.25;11.25;;;;;25.64;53.94;101808.56;5050685;28;8858;-70
2023/07/09 09:50:37;;;;;;;;;10.50;10.00;;;;;25.73;54.08;101812.47;5015058;28;8835;-69
2023/07/09 09:53:07;;;;;;;;;13.25;12.75;;;;;25.82;52.90;101810.88;5010989;28;8819;-68
2023/07/09 09:55:34;;;;;;;;;12.50;10.25;;;;;25.88;52.77;101822.72;5010929;28;8846;-68
2023/07/09 09:58:02;;;;;;;;;20.25;19.75;;;;;25.90;51.54;101817.78;5027234;28;8831;-68
2023/07/09 10:00:33;;;;;;;;;16.75;16.00;;;;;25.89;51.44;101821.66;5035171;28;8862;-69
2023/07/09 10:03:03;;;;;;;;;14.75;13.50;;;;;25.89;51.14;101819.72;5049448;28;8813;-69
2023/07/09 10:05:48;;;;;;;;;18.50;17.25;;;;;25.91;51.15;101835.16;5037746;28;8978;-68
2023/07/09 10:08:29;;;;;;;;;15.75;15.75;;;;;25.91;50.84;101851.72;5050230;28;8869;-69
2023/07/09 10:11:18;;;;;;;;;12.00;11.75;;;;;25.92;51.12;101842.31;5035690;28;8870;-69
2023/07/09 10:13:46;;;;;;;;;13.50;13.50;;;;;25.96;50.88;101849.78;5010854;28;8843;-68
2023/07/09 10:16:31;;;;;;;;;13.75;13.75;;;;;26.00;51.01;101845.38;5026134;28;8889;-69
2023/07/09 10:19:03;;;;;;;;;15.00;14.50;;;;;26.07;51.16;101842.34;5032533;28;8879;-69
2023/07/09 10:21:51;;;;;;;;;23.25;22.25;;;;;26.10;51.30;101841.81;5045865;28;8889;-68
2023/07/09 10:24:37;;;;;;;;;24.00;23.50;;;;;25.96;52.56;101841.50;5042524;28;8828;-70
2023/07/09 10:27:15;;;;;;;;;16.25;16.00;;;;;25.98;53.73;101819.19;5030636;28;8967;-71
2023/07/09 10:29:51;;;;;;;;;19.00;19.00;;;;;26.04;54.55;101810.59;5024240;28;9631;-69
2023/07/09 10:32:59;;;;;;;;;20.00;19.50;;;;;26.11;54.70;101807.59;5029307;28;9542;-69
2023/07/09 10:35:41;;;;;;;;;28.50;23.75;;;;;26.08;54.46;101802.63;5014695;28;8844;-70
2023/07/09 10:38:34;;;;;;;;;26.25;26.25;;;;;26.06;54.53;101813.13;5043963;28;8832;-66
2023/07/09 10:41:05;;;;;;;;;29.25;28.25;;;;;26.03;54.71;101821.94;5029872;28;8829;-69
2023/07/09 10:44:08;;;;;;;;;23.25;21.50;;;;;25.96;55.20;101810.31;5016332;28;8843;-68
2023/07/09 10:46:39;;;;;;;;;28.25;27.50;;;;;25.97;55.34;101806.47;5027456;28;9551;-69
2023/07/09 10:49:11;;;;;;;;;20.00;19.75;;;;;25.94;55.77;101802.34;5048035;28;8830;-68
2023/07/09 10:51:39;;;;;;;;;27.75;24.50;;;;;25.93;55.36;101797.06;5043968;28;8852;-68
2023/07/09 10:54:12;;;;;;;;;22.00;20.25;;;;;25.94;54.70;101790.47;5049532;28;9604;-69
2023/07/09 10:56:39;;;;;;;;;16.50;15.00;;;;;25.97;55.01;101781.63;5029237;28;8844;-70
2023/07/09 10:59:28;;;;;;;;;17.25;17.25;;;;;26.02;55.27;101787.19;5032723;28;8858;-69
2023/07/09 11:02:18;;;;;;;;;17.00;17.00;;;;;25.95;55.70;101801.22;5027617;28;8998;-69
2023/07/09 11:05:00;;;;;;;;;14.00;14.00;;;;;25.91;56.04;101804.81;5028667;28;8857;-70
2023/07/09 11:07:32;;;;;;;;;11.50;11.50;;;;;25.87;56.42;101807.28;5035926;28;9607;-69
2023/07/09 11:10:04;;;;;;;;;12.50;11.25;;;;;25.83;56.79;101812.50;5034981;28;8837;-68
2023/07/09 11:12:42;;;;;;;;;9.75;9.75;;;;;25.85;57.31;101839.84;5026270;28;8829;-68
2023/07/09 11:15:25;;;;;;;;;13.25;12.25;;;;;25.83;57.95;101836.53;5033076;28;8994;-69
2023/07/09 11:17:52;;;;;;;;;14.00;13.00;;;;;25.78;57.94;101818.03;5027482;28;8820;-70
2023/07/09 11:20:32;;;;;;;;;9.75;9.75;;;;;25.80;57.92;101817.75;5024640;28;8858;-68
2023/07/09 11:23:05;;;;;;;;;16.00;13.50;;;;;25.86;58.25;101806.47;5035997;28;8838;-68
2023/07/09 11:25:44;;;;;;;;;15.00;12.50;;;;;25.93;57.63;101803.44;5036218;28;8824;-69
2023/07/09 11:28:11;;;;;;;;;12.00;11.25;;;;;25.97;57.04;101796.28;5050751;28;8836;-68
2023/07/09 11:30:54;;;;;;;;;10.25;10.25;;;;;25.96;56.31;101793.78;5017169;28;8867;-68